Time;durP1;ratioP1;P1;durP2;ratioP2;P2;SDS_P1;SDS_P2;PMS_P1;PMS_P2;Temp;Humidity;BMP_temperature;BMP_pressure;BME280_temperature;BME280_humidity;BME280_pressure;Samples;Min_cycle;Max_cycle;Signal;HPM_P1;HPM_P2
2021/11/14 00:00:40;;;;;;;95.90;43.10;;;;;;;7.94;100.00;101568.72;5061123;28;20025;-68
2021/11/14 00:03:06;;;;;;;86.65;43.75;;;;;;;7.97;100.00;101568.78;5062307;28;20021;-69
2021/11/14 00:05:33;;;;;;;116.75;48.03;;;;;;;7.95;100.00;101564.31;5062328;28;20108;-68
2021/11/14 00:07:58;;;;;;;90.72;46.15;;;;;;;8.01;100.00;101565.41;5062976;28;20036;-70
2021/11/14 00:10:23;;;;;;;106.03;47.80;;;;;;;7.98;100.00;101561.78;5061023;28;20024;-69
2021/11/14 00:12:49;;;;;;;96.07;46.42;;;;;;;8.02;100.00;101561.91;5063872;28;20031;-69
2021/11/14 00:15:14;;;;;;;105.65;47.30;;;;;;;7.99;100.00;101569.75;5060552;28;20057;-67
2021/11/14 00:17:40;;;;;;;108.68;47.88;;;;;;;7.97;100.00;101574.06;5063105;28;20028;-66
2021/11/14 00:20:08;;;;;;;104.53;46.85;;;;;;;7.96;100.00;101574.91;5061720;28;20035;-67
2021/11/14 00:22:33;;;;;;;111.60;46.17;;;;;;;7.97;100.00;101579.31;5062049;28;20037;-64
2021/11/14 00:25:00;;;;;;;112.72;48.10;;;;;;;7.95;100.00;101586.31;5062319;28;20027;-70
2021/11/14 00:27:27;;;;;;;113.13;48.22;;;;;;;7.96;100.00;101587.19;5061181;28;20029;-70
2021/11/14 00:29:52;;;;;;;118.38;48.80;;;;;;;7.94;100.00;101584.50;5063613;28;20024;-68
2021/11/14 00:32:17;;;;;;;117.72;48.00;;;;;;;7.94;100.00;101589.78;5060041;28;20098;-70
2021/11/14 00:34:43;;;;;;;106.25;47.42;;;;;;;7.95;100.00;101593.28;5063570;28;20062;-69
2021/11/14 00:37:08;;;;;;;96.60;45.08;;;;;;;7.99;100.00;101597.78;5061038;28;20032;-68
2021/11/14 00:39:34;;;;;;;114.18;45.35;;;;;;;7.92;100.00;101599.38;5061062;28;20155;-68
2021/11/14 00:41:59;;;;;;;112.20;45.88;;;;;;;7.93;100.00;101601.16;5062558;28;20032;-65
2021/11/14 00:44:24;;;;;;;95.05;44.95;;;;;;;7.94;100.00;101600.31;5063218;28;20380;-70
2021/11/14 00:46:51;;;;;;;108.50;46.15;;;;;;;7.97;100.00;101605.66;5067276;28;20162;-71
2021/11/14 00:49:17;;;;;;;111.85;48.00;;;;;;;7.97;100.00;101605.66;5063563;28;20487;-69
2021/11/14 00:51:42;;;;;;;123.90;48.80;;;;;;;7.93;100.00;101593.25;5066767;28;20033;-65
2021/11/14 00:54:08;;;;;;;108.97;46.22;;;;;;;7.97;100.00;101599.50;5064805;28;20482;-69
2021/11/14 00:56:34;;;;;;;122.00;48.63;;;;;;;7.95;100.00;101602.09;5065316;28;20361;-69
2021/11/14 00:59:00;;;;;;;115.50;48.00;;;;;;;7.92;100.00;101596.75;5065735;28;20025;-66
2021/11/14 01:01:26;;;;;;;109.97;46.97;;;;;;;7.95;100.00;101601.19;5063670;28;20108;-70
2021/11/14 01:03:52;;;;;;;110.80;46.30;;;;;;;7.97;100.00;101608.28;5064023;28;20029;-71
2021/11/14 01:06:18;;;;;;;109.20;47.40;;;;;;;7.98;100.00;101604.81;5066088;28;20036;-65
2021/11/14 01:08:43;;;;;;;120.85;48.20;;;;;;;7.97;100.00;101600.38;5063892;28;20372;-65
2021/11/14 01:11:10;;;;;;;115.22;47.47;;;;;;;7.96;100.00;101606.50;5067178;28;20029;-64
2021/11/14 01:13:36;;;;;;;113.35;47.10;;;;;;;7.95;100.00;101604.75;5063249;28;20460;-65
2021/11/14 01:16:04;;;;;;;109.18;46.38;;;;;;;7.98;100.00;101606.53;5066504;28;20453;-65
2021/11/14 01:18:29;;;;;;;115.30;46.00;;;;;;;7.98;100.00;101620.63;5064042;28;20023;-64
2021/11/14 01:20:58;;;;;;;106.32;45.15;;;;;;;7.98;100.00;101617.97;5064948;28;20024;-65
2021/11/14 01:23:25;;;;;;;102.35;45.15;;;;;;;7.96;100.00;101624.94;5063699;28;20028;-64
2021/11/14 01:25:52;;;;;;;113.03;44.90;;;;;;;7.95;100.00;101630.16;5064571;28;20021;-68
2021/11/14 01:28:18;;;;;;;112.72;46.13;;;;;;;7.94;100.00;101637.16;5065357;28;20059;-68
2021/11/14 01:30:49;;;;;;;112.28;44.70;;;;;;;7.91;100.00;101637.09;5063796;28;20031;-68
2021/11/14 01:33:17;;;;;;;109.03;45.13;;;;;;;7.93;100.00;101639.75;5065731;28;20483;-67
2021/11/14 01:35:44;;;;;;;107.55;44.17;;;;;;;7.90;100.00;101637.06;5063008;28;20029;-68
2021/11/14 01:38:10;;;;;;;116.57;47.00;;;;;;;7.88;100.00;101639.63;5066565;28;20055;-68
2021/11/14 01:40:40;;;;;;;103.35;44.95;;;;;;;7.91;100.00;101639.72;5063212;28;20107;-70
2021/11/14 01:43:08;;;;;;;111.30;44.65;;;;;;;7.91;100.00;101639.72;5062648;28;20468;-67
2021/11/14 01:45:34;;;;;;;106.45;43.15;;;;;;;7.91;100.00;101642.34;5066058;28;20486;-68
2021/11/14 01:48:00;;;;;;;110.70;45.45;;;;;;;7.90;100.00;101645.81;5062735;28;20028;-69
2021/11/14 01:50:25;;;;;;;115.85;46.42;;;;;;;7.89;100.00;101644.03;5065626;28;20465;-70
2021/11/14 01:52:53;;;;;;;131.75;49.35;;;;;;;7.92;100.00;101651.13;5063610;28;20037;-68
2021/11/14 01:55:23;;;;;;;139.75;50.50;;;;;;;7.94;100.00;101658.22;5062437;28;20051;-67
2021/11/14 01:57:49;;;;;;;158.20;50.90;;;;;;;7.91;100.00;101652.88;5065719;28;20399;-68
2021/11/14 02:00:22;;;;;;;128.60;47.53;;;;;;;7.94;100.00;101662.63;5062706;28;20035;-70
2021/11/14 02:02:48;;;;;;;128.90;48.80;;;;;;;7.92;100.00;101659.94;5065393;28;20079;-70
2021/11/14 02:05:13;;;;;;;123.13;47.33;;;;;;;7.94;100.00;101662.63;5065325;28;20471;-70
2021/11/14 02:07:39;;;;;;;140.85;49.67;;;;;;;7.88;100.00;101659.78;5062168;28;20031;-65
2021/11/14 02:10:07;;;;;;;150.55;51.55;;;;;;;7.91;100.00;101666.06;5065967;28;20117;-69
2021/11/14 02:12:33;;;;;;;149.40;51.97;;;;;;;7.90;100.00;101660.75;5062498;28;20032;-68
2021/11/14 02:14:58;;;;;;;152.50;52.35;;;;;;;7.88;100.00;101668.59;5064753;28;20421;-67
2021/11/14 02:17:24;;;;;;;156.80;53.40;;;;;;;7.89;100.00;101665.09;5063810;28;20430;-69
2021/11/14 02:19:52;;;;;;;146.82;50.30;;;;;;;7.90;100.00;101677.41;5063129;28;20025;-70
2021/11/14 02:22:19;;;;;;;137.95;49.75;;;;;;;7.92;100.00;101675.75;5064500;28;20444;-67
2021/11/14 02:24:46;;;;;;;141.48;50.20;;;;;;;7.91;100.00;101675.69;5062733;28;20021;-69
2021/11/14 02:27:13;;;;;;;149.27;51.90;;;;;;;7.89;100.00;101680.00;5064882;28;20493;-70
2021/11/14 02:29:38;;;;;;;142.05;50.45;;;;;;;7.90;100.00;101681.81;5061794;28;20033;-69
2021/11/14 02:32:04;;;;;;;147.57;50.22;;;;;;;7.88;100.00;101679.13;5064818;28;20484;-65
2021/11/14 02:34:29;;;;;;;144.90;50.78;;;;;;;7.87;100.00;101679.09;5062410;28;20035;-67
2021/11/14 02:36:55;;;;;;;142.52;50.58;;;;;;;7.85;100.00;101687.81;5063618;28;20025;-65
2021/11/14 02:39:20;;;;;;;139.32;49.58;;;;;;;7.89;100.00;101690.53;5061997;28;20094;-65
2021/11/14 02:41:46;;;;;;;138.65;50.38;;;;;;;7.87;100.00;101693.13;5063644;28;20031;-67
2021/11/14 02:44:12;;;;;;;136.45;49.03;;;;;;;7.89;100.00;101691.41;5062430;28;20037;-64
2021/11/14 02:46:38;;;;;;;134.48;49.58;;;;;;;7.88;100.00;101702.81;5065102;28;20470;-66
2021/11/14 02:49:03;;;;;;;129.40;49.60;;;;;;;7.86;100.00;101696.59;5061513;28;20109;-66
2021/11/14 02:51:31;;;;;;;129.75;48.17;;;;;;;7.88;100.00;101699.28;5064398;28;20027;-67
2021/11/14 02:53:59;;;;;;;129.60;47.97;;;;;;;7.85;100.00;101705.38;5062275;28;20070;-66
2021/11/14 02:56:24;;;;;;;124.65;47.60;;;;;;;7.85;100.00;101701.00;5063893;28;20059;-70
2021/11/14 02:58:50;;;;;;;130.98;49.03;;;;;;;7.85;100.00;101713.28;5062963;28;20055;-70
2021/11/14 03:01:30;;;;;;;121.50;47.65;;;;;;;7.85;100.00;101715.91;5062195;28;20029;-71
2021/11/14 03:03:56;;;;;;;125.47;47.25;;;;;;;7.85;100.00;101708.88;5063345;28;20034;-71
2021/11/14 03:06:23;;;;;;;118.80;45.72;;;;;;;7.83;100.00;101705.34;5061913;28;20025;-70
2021/11/14 03:08:49;;;;;;;118.00;46.08;;;;;;;7.84;100.00;101708.84;5062860;28;20033;-71
2021/11/14 03:11:15;;;;;;;123.20;46.85;;;;;;;7.83;100.00;101702.69;5063138;28;20020;-70
2021/11/14 03:13:41;;;;;;;114.05;44.80;;;;;;;7.82;100.00;101706.16;5061824;28;20029;-70
2021/11/14 03:16:11;;;;;;;121.47;47.00;;;;;;;7.82;100.00;101711.44;5064259;28;20030;-71
2021/11/14 03:18:36;;;;;;;113.65;44.90;;;;;;;7.80;100.00;101713.09;5061226;28;20353;-70
2021/11/14 03:21:02;;;;;;;115.78;43.75;;;;;;;7.78;100.00;101713.94;5064272;28;20023;-70
2021/11/14 03:23:29;;;;;;;112.50;45.30;;;;;;;7.76;100.00;101718.25;5061294;28;20217;-71
2021/11/14 03:25:56;;;;;;;108.13;43.35;;;;;;;7.71;100.00;101726.00;5063520;28;20036;-70
2021/11/14 03:28:22;;;;;;;116.43;45.72;;;;;;;7.69;100.00;101725.09;5061873;28;20070;-70
2021/11/14 03:30:53;;;;;;;116.65;45.47;;;;;;;7.68;100.00;101729.44;5062815;28;20437;-70
2021/11/14 03:33:19;;;;;;;120.88;45.70;;;;;;;7.67;100.00;101727.66;5062563;28;20041;-64
2021/11/14 03:35:53;;;;;;;115.35;45.15;;;;;;;7.70;100.00;101723.34;5060902;28;20098;-67
2021/11/14 03:38:24;;;;;;;125.07;46.97;;;;;;;7.66;100.00;101733.78;5061672;28;20489;-65
2021/11/14 03:40:50;;;;;;;120.75;44.90;;;;;;;7.65;100.00;101737.22;5061538;28;20032;-64
2021/11/14 03:43:16;;;;;;;132.40;47.70;;;;;;;7.67;100.00;101726.75;5063101;28;20104;-66
2021/11/14 03:45:42;;;;;;;127.90;47.60;;;;;;;7.64;100.00;101737.19;5061212;28;20068;-65
2021/11/14 03:48:08;;;;;;;126.45;46.30;;;;;;;7.63;100.00;101736.31;5064411;28;20142;-65
2021/11/14 03:50:34;;;;;;;116.70;45.22;;;;;;;7.64;100.00;101743.34;5060653;28;20084;-65
2021/11/14 03:53:00;;;;;;;119.22;44.75;;;;;;;7.65;100.00;101742.50;5063947;28;20025;-65
2021/11/14 03:55:27;;;;;;;134.18;48.13;;;;;;;7.60;100.00;101744.13;5061875;28;20118;-66
2021/11/14 03:57:52;;;;;;;129.88;47.42;;;;;;;7.59;100.00;101747.59;5062638;28;20422;-66
2021/11/14 04:00:22;;;;;;;127.88;45.72;;;;;;;7.59;100.00;101750.22;5063177;28;20111;-66
2021/11/14 04:02:50;;;;;;;135.98;48.15;;;;;;;7.60;100.00;101752.00;5062013;28;20028;-65
2021/11/14 04:05:17;;;;;;;133.73;47.53;;;;;;;7.57;100.00;101749.28;5062428;28;20028;-64
2021/11/14 04:07:43;;;;;;;132.52;47.63;;;;;;;7.58;100.00;101753.69;5061571;28;20349;-65
2021/11/14 04:10:08;;;;;;;141.57;48.70;;;;;;;7.57;100.00;101756.25;5063609;28;20032;-65
2021/11/14 04:12:34;;;;;;;132.57;46.25;;;;;;;7.57;100.00;101753.63;5060568;28;20505;-65
2021/11/14 04:15:00;;;;;;;132.93;46.70;;;;;;;7.59;100.00;101766.00;5060403;28;20025;-65
2021/11/14 04:17:25;;;;;;;135.85;47.17;;;;;;;7.59;100.00;101766.00;5063993;28;20017;-67
2021/11/14 04:19:50;;;;;;;135.50;47.47;;;;;;;7.60;100.00;101762.53;5064950;28;20517;-69
2021/11/14 04:22:15;;;;;;;130.02;47.20;;;;;;;7.58;100.00;101764.22;5065940;28;20392;-70
2021/11/14 04:24:41;;;;;;;135.82;47.28;;;;;;;7.57;100.00;101767.72;5062967;28;20447;-66
2021/11/14 04:27:07;;;;;;;136.93;47.92;;;;;;;7.57;100.00;101767.72;5065407;28;20055;-68
2021/11/14 04:29:32;;;;;;;136.55;49.15;;;;;;;7.57;100.00;101769.41;5066518;28;20091;-69
2021/11/14 04:31:58;;;;;;;140.25;49.33;;;;;;;7.56;100.00;101771.16;5063991;28;20080;-67
2021/11/14 04:34:23;;;;;;;131.50;46.30;;;;;;;7.55;100.00;101768.50;5066284;28;20036;-69
2021/11/14 04:36:49;;;;;;;130.40;48.97;;;;;;;7.57;100.00;101775.59;5064138;28;20060;-70
2021/11/14 04:39:14;;;;;;;132.63;46.53;;;;;;;7.58;100.00;101774.72;5064559;28;20028;-68
2021/11/14 04:41:39;;;;;;;136.55;49.22;;;;;;;7.58;100.00;101777.38;5065109;28;20509;-70
2021/11/14 04:44:05;;;;;;;126.88;46.53;;;;;;;7.60;100.00;101783.59;5065983;28;20033;-69
2021/11/14 04:46:30;;;;;;;138.68;49.35;;;;;;;7.57;100.00;101783.50;5064582;28;20021;-70
2021/11/14 04:48:55;;;;;;;129.35;47.50;;;;;;;7.59;100.00;101780.91;5066158;28;20032;-67
2021/11/14 04:51:21;;;;;;;132.18;47.67;;;;;;;7.59;100.00;101780.91;5064172;28;20021;-65
2021/11/14 04:53:46;;;;;;;131.73;47.17;;;;;;;7.56;100.00;101776.44;5067013;28;20029;-67
2021/11/14 04:56:12;;;;;;;140.77;49.70;;;;;;;7.58;100.00;101787.88;5063847;28;20036;-67
2021/11/14 04:58:37;;;;;;;135.43;49.67;;;;;;;7.58;100.00;101785.25;5066350;28;20025;-68
2021/11/14 05:01:03;;;;;;;134.15;47.95;;;;;;;7.57;100.00;101794.03;5064989;28;20048;-69
2021/11/14 05:03:28;;;;;;;135.55;48.22;;;;;;;7.59;100.00;101791.44;5065269;28;20028;-69
2021/11/14 05:05:57;;;;;;;138.15;49.83;;;;;;;7.60;100.00;101785.31;5065616;28;20082;-70
2021/11/14 05:08:23;;;;;;;142.88;48.42;;;;;;;7.57;100.00;101788.75;5064642;28;20025;-69
2021/11/14 05:10:50;;;;;;;141.65;49.70;;;;;;;7.57;100.00;101794.03;5066363;28;20078;-64
2021/11/14 05:13:16;;;;;;;147.52;51.20;;;;;;;7.58;100.00;101805.44;5063556;28;20131;-64
2021/11/14 05:15:41;;;;;;;151.38;52.35;;;;;;;7.57;100.00;101801.00;5066682;28;20430;-64
2021/11/14 05:18:07;;;;;;;158.40;51.17;;;;;;;7.59;100.00;101809.84;5063979;28;20071;-64
2021/11/14 05:20:33;;;;;;;151.70;52.25;;;;;;;7.58;100.00;101814.22;5065421;28;20424;-64
2021/11/14 05:22:59;;;;;;;158.15;52.33;;;;;;;7.58;100.00;101811.56;5063310;28;20033;-65
2021/11/14 05:25:24;;;;;;;165.93;52.45;;;;;;;7.60;100.00;101815.16;5066892;28;20031;-64
2021/11/14 05:27:49;;;;;;;166.30;53.67;;;;;;;7.62;100.00;101818.72;5063226;28;20049;-65
2021/11/14 05:30:15;;;;;;;172.13;52.45;;;;;;;7.63;100.00;101817.91;5062513;28;20028;-64
2021/11/14 05:32:40;;;;;;;175.23;54.72;;;;;;;7.62;100.00;101821.34;5064891;28;20496;-64
2021/11/14 05:35:09;;;;;;;181.88;52.70;;;;;;;7.64;100.00;101832.81;5060298;28;20013;-64
2021/11/14 05:37:35;;;;;;;187.75;56.97;;;;;;;7.61;100.00;101835.34;5065770;28;20484;-65
2021/11/14 05:40:00;;;;;;;180.75;52.97;;;;;;;7.63;100.00;101831.06;5065969;28;20074;-64
2021/11/14 05:42:26;;;;;;;197.48;55.78;;;;;;;7.66;100.00;101833.78;5062555;28;20501;-64
2021/11/14 05:44:51;;;;;;;210.50;58.85;;;;;;;7.66;100.00;101841.66;5066034;28;20170;-64
2021/11/14 05:47:17;;;;;;;187.68;54.40;;;;;;;7.66;100.00;101836.41;5063862;28;20028;-64
2021/11/14 05:49:42;;;;;;;204.40;58.65;;;;;;;7.68;100.00;101846.97;5064383;28;20025;-65
2021/11/14 05:52:08;;;;;;;204.57;58.05;;;;;;;7.69;100.00;101846.16;5065332;28;20025;-65
2021/11/14 05:54:33;;;;;;;193.93;55.15;;;;;;;7.72;100.00;101850.59;5063226;28;20025;-71
2021/11/14 05:56:59;;;;;;;206.93;58.25;;;;;;;7.70;100.00;101852.28;5065868;28;20421;-70
2021/11/14 05:59:35;;;;;;;192.23;55.97;;;;;;;7.67;100.00;101854.00;5062807;28;20019;-70
2021/11/14 06:02:24;;;;;;;187.30;54.92;;;;;;;7.71;100.00;101857.59;5063690;28;20025;-70
2021/11/14 06:07:17;;;;;;;186.13;56.03;;;;;;;7.70;100.00;101863.69;5067054;28;20122;-71
2021/11/14 06:09:42;;;;;;;179.18;56.97;;;;;;;7.68;100.00;101862.78;5062659;28;20165;-71
2021/11/14 06:12:08;;;;;;;174.18;53.10;;;;;;;7.70;100.00;101868.09;5066772;28;20108;-71
2021/11/14 06:14:34;;;;;;;171.20;56.22;;;;;;;7.70;100.00;101874.22;5066730;28;20033;-71
2021/11/14 06:17:00;;;;;;;174.65;55.17;;;;;;;7.70;100.00;101876.88;5067280;28;20027;-67
2021/11/14 06:19:25;;;;;;;170.35;54.90;;;;;;;7.68;100.00;101876.81;5063932;28;20028;-66
2021/11/14 06:21:51;;;;;;;172.02;55.85;;;;;;;7.68;100.00;101879.44;5072587;28;20055;-72
2021/11/14 06:24:16;;;;;;;169.88;54.70;;;;;;;7.69;100.00;101872.47;5070788;28;20028;-64
2021/11/14 06:26:44;;;;;;;168.02;53.08;;;;;;;7.67;100.00;101885.59;5071956;28;20021;-64
2021/11/14 06:29:09;;;;;;;177.05;54.92;;;;;;;7.68;100.00;101883.84;5072307;28;20671;-63
2021/11/14 06:31:34;;;;;;;174.73;55.42;;;;;;;7.67;100.00;101888.22;5067283;28;20106;-63
2021/11/14 06:34:00;;;;;;;175.25;54.80;;;;;;;7.68;100.00;101895.25;5070309;28;20398;-63
2021/11/14 06:36:26;;;;;;;170.40;52.53;;;;;;;7.67;100.00;101896.09;5069747;28;20107;-63
2021/11/14 06:38:51;;;;;;;166.90;52.63;;;;;;;7.67;100.00;101896.09;5072017;28;20028;-63
2021/11/14 06:41:16;;;;;;;170.82;53.95;;;;;;;7.68;100.00;101894.34;5071355;28;20502;-70
2021/11/14 06:43:42;;;;;;;166.27;53.78;;;;;;;7.67;100.00;101905.72;5071768;28;20028;-69
2021/11/14 06:46:08;;;;;;;168.00;53.60;;;;;;;7.65;100.00;101907.41;5071921;28;20242;-70
2021/11/14 06:48:33;;;;;;;160.07;52.17;;;;;;;7.62;100.00;101910.84;5071520;28;20032;-70
2021/11/14 06:50:58;;;;;;;163.48;51.75;;;;;;;7.62;100.00;101917.84;5072010;28;20028;-69
2021/11/14 06:53:24;;;;;;;166.85;52.80;;;;;;;7.63;100.00;101920.53;5064929;28;20062;-70
2021/11/14 06:55:49;;;;;;;167.25;53.67;;;;;;;7.61;100.00;101922.19;5060803;28;20029;-69
2021/11/14 06:58:15;;;;;;;164.45;52.67;;;;;;;7.65;100.00;101928.47;5064143;28;20021;-70
2021/11/14 07:00:42;;;;;;;168.73;53.70;;;;;;;7.64;100.00;101932.81;5062263;28;20379;-69
2021/11/14 07:03:08;;;;;;;167.20;54.13;;;;;;;7.61;100.00;101938.00;5061532;28;20028;-70
2021/11/14 07:05:34;;;;;;;158.05;52.38;;;;;;;7.58;100.00;101940.53;5063142;28;20021;-67
2021/11/14 07:07:59;;;;;;;162.77;52.15;;;;;;;7.58;100.00;101947.53;5063518;28;20074;-70
2021/11/14 07:10:25;;;;;;;160.15;53.95;;;;;;;7.58;100.00;101943.16;5061797;28;20465;-67
2021/11/14 07:12:50;;;;;;;162.05;53.50;;;;;;;7.58;100.00;101952.78;5064400;28;20099;-70
2021/11/14 07:15:16;;;;;;;166.90;53.65;;;;;;;7.57;100.00;101951.91;5061223;28;20468;-69
2021/11/14 07:17:42;;;;;;;164.05;53.70;;;;;;;7.58;100.00;101953.69;5067690;28;20029;-63
2021/11/14 07:20:11;;;;;;;170.43;55.40;;;;;;;7.62;100.00;101955.56;5071254;28;20032;-63
2021/11/14 07:22:36;;;;;;;179.07;55.97;;;;;;;7.65;100.00;101967.94;5068474;28;20032;-62
2021/11/14 07:25:03;;;;;;;165.85;54.38;;;;;;;7.69;100.00;101964.59;5067878;28;20021;-62
2021/11/14 07:27:28;;;;;;;162.27;53.83;;;;;;;7.71;100.00;101980.44;5069520;28;20024;-64
2021/11/14 07:29:54;;;;;;;153.63;52.72;;;;;;;7.75;100.00;101983.22;5071165;28;20456;-62
2021/11/14 07:32:20;;;;;;;141.82;51.60;;;;;;;7.76;100.00;101973.56;5069972;28;20059;-64
2021/11/14 07:34:45;;;;;;;140.52;52.22;;;;;;;7.75;100.00;101974.44;5062189;28;20072;-62
2021/11/14 07:37:11;;;;;;;130.25;49.40;;;;;;;7.78;100.00;101979.81;5069131;28;20067;-62
2021/11/14 07:39:36;;;;;;;130.15;50.88;;;;;;;7.75;100.00;101993.75;5070972;28;20024;-64
2021/11/14 07:42:03;;;;;;;132.80;48.90;;;;;;;7.77;100.00;101991.16;5065060;28;20025;-63
2021/11/14 07:44:28;;;;;;;122.95;48.92;;;;;;;7.75;100.00;101990.22;5071152;28;20025;-64
2021/11/14 07:46:53;;;;;;;109.75;45.80;;;;;;;7.76;100.00;101999.88;5071131;28;20025;-63
2021/11/14 07:49:19;;;;;;;112.95;47.40;;;;;;;7.74;100.00;102013.00;5071159;28;20103;-63
2021/11/14 07:51:44;;;;;;;116.18;49.75;;;;;;;7.74;100.00;102015.63;5067922;28;20456;-63
2021/11/14 07:54:10;;;;;;;114.95;49.00;;;;;;;7.73;100.00;102016.47;5073197;28;20070;-63
2021/11/14 07:56:35;;;;;;;115.88;47.80;;;;;;;7.72;100.00;102024.31;5075116;28;20060;-63
2021/11/14 07:59:01;;;;;;;109.68;47.80;;;;;;;7.72;100.00;102024.31;5074934;28;20115;-64
2021/11/14 08:01:26;;;;;;;103.10;47.30;;;;;;;7.74;100.00;102026.16;5074827;28;20075;-65
2021/11/14 08:03:52;;;;;;;102.15;45.75;;;;;;;7.70;100.00;102034.78;5075380;28;20061;-64
2021/11/14 08:06:18;;;;;;;103.97;46.92;;;;;;;7.73;100.00;102034.00;5074578;28;20028;-65
2021/11/14 08:08:44;;;;;;;99.93;45.97;;;;;;;7.70;100.00;102042.69;5065613;28;20502;-64
2021/11/14 08:11:09;;;;;;;96.97;44.53;;;;;;;7.66;100.00;102046.97;5065750;28;20108;-65
2021/11/14 08:13:35;;;;;;;98.95;44.33;;;;;;;7.66;100.00;102048.72;5061651;28;20048;-64
2021/11/14 08:16:01;;;;;;;93.38;43.10;;;;;;;7.67;100.00;102053.13;5065612;28;20029;-64
2021/11/14 08:18:26;;;;;;;81.93;40.35;;;;;;;7.60;100.00;102053.72;5063797;28;20024;-67
2021/11/14 08:20:51;;;;;;;77.20;40.67;;;;;;;7.55;100.00;102053.56;5063953;28;20020;-66
2021/11/14 08:23:18;;;;;;;86.15;41.40;;;;;;;7.49;100.00;102056.88;5064291;28;20041;-65
2021/11/14 08:25:44;;;;;;;81.30;41.22;;;;;;;7.46;100.00;102063.78;5065834;28;20020;-68
2021/11/14 08:28:10;;;;;;;86.63;41.70;;;;;;;7.43;100.00;102064.56;5064652;28;20035;-64
2021/11/14 08:30:36;;;;;;;87.70;40.60;;;;;;;7.40;100.00;102071.44;5067260;28;20021;-63
2021/11/14 08:33:04;;;;;;;79.80;39.53;;;;;;;7.41;100.00;102070.59;5063826;28;20044;-63
2021/11/14 08:35:29;;;;;;;78.55;39.40;;;;;;;7.41;100.00;102081.13;5063979;28;20037;-66
2021/11/14 08:37:59;;;;;;;78.53;38.63;;;;;;;7.42;100.00;102080.28;5067047;28;20027;-63
2021/11/14 08:40:26;;;;;;;83.72;41.80;;;;;;;7.41;100.00;102087.28;5064300;28;20118;-66
2021/11/14 08:42:51;;;;;;;75.90;38.60;;;;;;;7.41;100.00;102089.00;5066155;28;20028;-63
2021/11/14 08:45:17;;;;;;;66.00;35.30;;;;;;;7.41;100.00;102089.00;5065680;28;20033;-63
2021/11/14 08:47:42;;;;;;;62.03;33.50;;;;;;;7.42;100.00;102088.19;5065220;28;20446;-64
2021/11/14 08:50:11;;;;;;;60.33;32.83;;;;;;;7.42;100.00;102096.94;5066553;28;20029;-63
2021/11/14 08:52:37;;;;;;;58.88;31.75;;;;;;;7.42;100.00;102098.69;5064227;28;20025;-65
2021/11/14 08:55:04;;;;;;;60.17;32.22;;;;;;;7.43;100.00;102095.25;5067110;28;20521;-63
2021/11/14 08:57:29;;;;;;;56.80;31.33;;;;;;;7.42;100.00;102101.34;5063843;28;20025;-65
2021/11/14 08:59:55;;;;;;;58.22;32.13;;;;;;;7.47;100.00;102105.00;5066487;28;20376;-63
2021/11/14 09:02:22;;;;;;;57.03;30.75;;;;;;;7.49;100.00;102116.50;5064516;28;20119;-62
2021/11/14 09:04:49;;;;;;;54.30;28.95;;;;;;;7.51;100.00;102120.09;5065135;28;20028;-64
2021/11/14 09:07:15;;;;;;;50.70;27.52;;;;;;;7.50;100.00;102129.72;5065645;28;20089;-64
2021/11/14 09:09:41;;;;;;;48.15;25.48;;;;;;;7.53;100.00;102118.41;5064259;28;20020;-66
2021/11/14 09:12:06;;;;;;;47.80;26.95;;;;;;;7.53;100.00;102128.03;5066359;28;20036;-63
2021/11/14 09:14:32;;;;;;;51.15;29.20;;;;;;;7.48;100.00;102130.50;5065008;28;20017;-64
2021/11/14 09:16:57;;;;;;;49.08;27.08;;;;;;;7.46;100.00;102132.19;5068734;28;20035;-63
2021/11/14 09:19:23;;;;;;;49.35;27.85;;;;;;;7.51;100.00;102135.88;5072446;28;20027;-65
2021/11/14 09:21:49;;;;;;;49.88;28.73;;;;;;;7.57;100.00;102141.38;5073301;28;20040;-65
2021/11/14 09:24:15;;;;;;;48.00;28.00;;;;;;;7.59;100.00;102136.19;5073186;28;20052;-63
2021/11/14 09:26:41;;;;;;;48.17;27.98;;;;;;;7.59;100.00;102146.72;5073344;28;20102;-63
2021/11/14 09:29:07;;;;;;;47.50;26.60;;;;;;;7.64;100.00;102142.50;5073581;28;20032;-63
2021/11/14 09:31:34;;;;;;;45.55;26.35;;;;;;;7.66;100.00;102146.97;5073114;28;20044;-63
2021/11/14 09:34:01;;;;;;;47.13;26.92;;;;;;;7.70;100.00;102152.34;5072800;28;20136;-62
2021/11/14 09:36:30;;;;;;;48.63;27.30;;;;;;;7.72;100.00;102166.47;5073450;28;20037;-63
2021/11/14 09:39:04;;;;;;;48.60;28.33;;;;;;;7.69;100.00;102154.09;5073168;28;20037;-61
2021/11/14 09:41:30;;;;;;;47.75;28.05;;;;;;;7.78;100.00;102159.69;5072984;28;20040;-62
2021/11/14 09:43:56;;;;;;;47.65;27.25;;;;;;;7.78;100.00;102157.06;5071055;28;20024;-65
2021/11/14 09:46:22;;;;;;;49.67;29.08;;;;;;;7.85;100.00;102166.97;5067312;28;20025;-64
2021/11/14 09:48:48;;;;;;;49.88;28.88;;;;;;;7.93;100.00;102171.63;5072964;28;20047;-64
2021/11/14 09:51:14;;;;;;;51.40;29.65;;;;;;;8.00;100.00;102169.25;5071830;28;20020;-64
2021/11/14 09:53:40;;;;;;;53.05;30.05;;;;;;;8.06;100.00;102172.97;5071919;28;20493;-64
2021/11/14 09:56:06;;;;;;;49.88;29.38;;;;;;;8.08;100.00;102171.28;5072823;28;20075;-65
2021/11/14 09:58:33;;;;;;;50.97;30.13;;;;;;;8.15;100.00;102170.66;5062156;28;20017;-66
2021/11/14 10:00:59;;;;;;;51.95;31.58;;;;;;;8.28;100.00;102172.88;5065153;28;20564;-66
2021/11/14 10:03:24;;;;;;;52.17;31.67;;;;;;;8.33;100.00;102179.22;5062688;28;20060;-69
2021/11/14 10:05:51;;;;;;;48.15;27.52;;;;;;;8.35;100.00;102177.50;5064490;28;20380;-65
2021/11/14 10:08:19;;;;;;;46.30;28.63;;;;;;;8.37;100.00;102183.75;5064210;28;20052;-64
2021/11/14 10:10:46;;;;;;;47.15;30.65;;;;;;;8.53;100.00;102184.28;5063187;28;20031;-64
2021/11/14 10:13:17;;;;;;;45.45;27.98;;;;;;;8.63;100.00;102186.41;5064817;28;20028;-65
2021/11/14 10:15:45;;;;;;;43.13;26.98;;;;;;;8.67;100.00;102190.94;5062455;28;20538;-65
2021/11/14 10:18:12;;;;;;;60.78;45.20;;;;;;;8.65;100.00;102186.44;5064959;28;20032;-65
2021/11/14 10:20:37;;;;;;;41.97;27.27;;;;;;;8.95;100.00;102194.47;5062394;28;20074;-64
2021/11/14 10:23:23;;;;;;;40.20;25.42;;;;;;;9.37;100.00;102185.25;5065617;28;20020;-64
2021/11/14 10:25:50;;;;;;;40.70;26.83;;;;;;;10.00;100.00;102189.72;5063208;28;20045;-64
2021/11/14 10:28:15;;;;;;;40.22;25.90;;;;;;;10.80;100.00;102191.88;5064051;28;20107;-64
2021/11/14 10:30:46;;;;;;;38.00;24.50;;;;;;;11.57;99.72;102205.09;5062810;28;20059;-64
2021/11/14 10:33:16;;;;;;;37.88;23.42;;;;;;;12.11;90.29;102203.59;5064071;28;20087;-65
2021/11/14 10:35:45;;;;;;;35.97;22.48;;;;;;;12.48;87.05;102205.19;5062513;28;20543;-65
2021/11/14 10:38:16;;;;;;;35.33;22.02;;;;;;;12.46;85.16;102209.56;5064361;28;20492;-64
2021/11/14 10:40:46;;;;;;;35.15;22.23;;;;;;;12.02;87.08;102202.53;5062422;28;20105;-64
2021/11/14 10:43:12;;;;;;;37.47;23.83;;;;;;;11.78;89.92;102207.31;5063997;28;20487;-64
2021/11/14 10:45:40;;;;;;;34.35;22.50;;;;;;;11.72;89.17;102213.38;5061701;28;20036;-64
2021/11/14 10:48:08;;;;;;;32.55;19.77;;;;;;;11.62;88.34;102214.03;5065332;28;20032;-64
2021/11/14 10:50:37;;;;;;;32.42;20.52;;;;;;;11.42;88.21;102218.91;5061402;28;20503;-64
2021/11/14 10:53:09;;;;;;;32.55;20.23;;;;;;;11.11;89.81;102216.44;5061472;28;20041;-65
2021/11/14 10:55:47;;;;;;;32.90;20.30;;;;;;;10.88;93.10;102215.88;5061245;28;20026;-64
2021/11/14 10:58:14;;;;;;;35.67;24.73;;;;;;;10.76;92.03;102218.19;5062594;28;20024;-65
2021/11/14 11:00:41;;;;;;;32.38;20.50;;;;;;;10.78;93.80;102220.03;5064402;28;20424;-65
2021/11/14 11:03:08;;;;;;;36.67;26.73;;;;;;;10.67;91.02;102215.31;5061489;28;20029;-64